createdAt,value
2022-10-04T00:00:40.837Z,98841.55
2022-10-04T00:01:59.654Z,98833.21
2022-10-04T00:03:12.549Z,98844.06
2022-10-04T00:04:25.463Z,98843.23
2022-10-04T00:05:31.494Z,98834.23
2022-10-04T00:06:37.815Z,98834.23
2022-10-04T00:07:49.410Z,98841.91
2022-10-04T00:08:56.284Z,98836.55
2022-10-04T00:10:05.749Z,98841.23
2022-10-04T00:11:15.507Z,98841.23
2022-10-04T00:12:22.418Z,98839.58
2022-10-04T00:13:28.130Z,98840.41
2022-10-04T00:14:35.052Z,98835.88
2022-10-04T00:15:40.202Z,98838.72
2022-10-04T00:16:44.452Z,98838.55
2022-10-04T00:17:54.194Z,98836.55
2022-10-04T00:19:04.327Z,98836.55
2022-10-04T00:20:27.633Z,98836.55
2022-10-04T00:21:53.810Z,98840.20
2022-10-04T00:23:23.085Z,98839.56
2022-10-04T00:24:29.453Z,98836.03
2022-10-04T00:25:37.119Z,98839.88
2022-10-04T00:26:45.606Z,98841.72
2022-10-04T00:28:15.034Z,98841.72
2022-10-04T00:29:29.555Z,98840.73
2022-10-04T00:30:40.561Z,98835.55
2022-10-04T00:32:09.928Z,98836.72
2022-10-04T00:33:16.820Z,98842.56
2022-10-04T00:34:29.971Z,98847.60
2022-10-04T00:35:33.990Z,98837.55
2022-10-04T00:36:47.542Z,98845.23
2022-10-04T00:38:09.369Z,98842.25
2022-10-04T00:39:16.315Z,98846.59
2022-10-04T00:40:27.542Z,98841.23
2022-10-04T00:41:50.031Z,98843.23
2022-10-04T00:43:04.243Z,98840.22
2022-10-04T00:44:11.178Z,98832.04
2022-10-04T00:45:24.115Z,98834.53
2022-10-04T00:46:31.533Z,98838.89
2022-10-04T00:47:50.449Z,98842.55
2022-10-04T00:49:03.873Z,98838.89
2022-10-04T00:50:22.380Z,98840.55
2022-10-04T00:51:32.205Z,98843.89
2022-10-04T00:52:39.051Z,98839.38
2022-10-04T00:54:00.522Z,98841.89
2022-10-04T00:55:07.489Z,98840.05
2022-10-04T00:56:14.368Z,98834.86
2022-10-04T00:57:21.258Z,98843.89
2022-10-04T00:58:30.561Z,98840.20
2022-10-04T00:59:43.167Z,98837.53
2022-10-04T01:00:49.191Z,98837.72
2022-10-04T01:02:05.019Z,98843.06
2022-10-04T01:03:14.429Z,98835.20
2022-10-04T01:04:24.325Z,98835.20
2022-10-04T01:05:34.092Z,98849.24
2022-10-04T01:06:39.460Z,98843.22
2022-10-04T01:07:56.223Z,98843.89
2022-10-04T01:09:03.102Z,98842.05
2022-10-04T01:10:16.592Z,98842.05
2022-10-04T01:11:30.717Z,98839.56
2022-10-04T01:12:46.260Z,98851.25
2022-10-04T01:14:00.371Z,98842.39
2022-10-04T01:15:16.066Z,98849.24
2022-10-04T01:16:26.905Z,98838.55
2022-10-04T01:17:31.028Z,98847.59
2022-10-04T01:18:36.547Z,98843.06
2022-10-04T01:19:43.521Z,98843.06
2022-10-04T01:21:13.104Z,98845.73
2022-10-04T01:22:32.104Z,98851.92
2022-10-04T01:23:40.783Z,98855.27
2022-10-04T01:24:46.360Z,98855.27
2022-10-04T01:25:52.317Z,98856.44
2022-10-04T01:26:57.852Z,98859.11
2022-10-04T01:28:01.936Z,98859.11
2022-10-04T01:29:17.704Z,98856.44
2022-10-04T01:30:23.430Z,98856.44
2022-10-04T01:31:34.838Z,98850.91
2022-10-04T01:32:40.346Z,98859.95
2022-10-04T01:33:44.514Z,98849.92
2022-10-04T01:34:48.604Z,98847.24
2022-10-04T01:35:52.801Z,98850.75
2022-10-04T01:36:59.437Z,98848.07
2022-10-04T01:38:05.456Z,98845.40
2022-10-04T01:39:09.555Z,98854.25
2022-10-04T01:40:13.546Z,98853.94
2022-10-04T01:41:20.596Z,98853.08
2022-10-04T01:42:29.133Z,98852.77
2022-10-04T01:43:35.977Z,98850.28
2022-10-04T01:44:42.972Z,98848.91
2022-10-04T01:45:49.824Z,98852.25
2022-10-04T01:46:57.100Z,98850.28
2022-10-04T01:48:03.518Z,98859.96
2022-10-04T01:49:14.921Z,98855.28
2022-10-04T01:50:30.528Z,98863.31
2022-10-04T01:51:41.922Z,98860.63
2022-10-04T01:52:51.367Z,98860.63
2022-10-04T01:54:02.477Z,98860.63
2022-10-04T01:55:18.656Z,98864.64
2022-10-04T01:56:30.239Z,98860.12
2022-10-04T01:57:42.565Z,98857.59
2022-10-04T01:58:49.411Z,98861.10
2022-10-04T02:00:01.870Z,98857.59
2022-10-04T02:01:08.835Z,98870.30
2022-10-04T02:02:39.888Z,98870.30
2022-10-04T02:04:01.747Z,98875.49
2022-10-04T02:05:08.895Z,98875.65
2022-10-04T02:07:29.991Z,98870.30
2022-10-04T02:11:56.964Z,98874.34
2022-10-04T02:13:04.323Z,98883.83
2022-10-04T02:14:13.834Z,98879.83
2022-10-04T02:15:22.891Z,98887.73
2022-10-04T02:16:27.429Z,98883.02
2022-10-04T02:17:35.728Z,98889.23
2022-10-04T02:18:42.925Z,98887.38
2022-10-04T02:19:47.783Z,98874.66
2022-10-04T02:20:53.839Z,98883.69
2022-10-04T02:22:00.697Z,98885.54
2022-10-04T02:23:04.386Z,98857.28
2022-10-04T02:24:09.667Z,98883.02
2022-10-04T02:25:15.847Z,98883.02
2022-10-04T02:37:12.136Z,98891.23
2022-10-04T02:37:57.940Z,98895.05
2022-10-04T02:39:11.976Z,98896.73
2022-10-04T02:40:18.917Z,98896.73
2022-10-04T02:41:29.360Z,98888.71
2022-10-04T02:42:57.497Z,98888.37
2022-10-04T02:44:12.752Z,98898.09
2022-10-04T02:45:41.520Z,98899.74
2022-10-04T02:46:58.598Z,98901.40
2022-10-04T02:48:06.915Z,98903.44
2022-10-04T02:49:28.759Z,98894.73
2022-10-04T02:50:38.719Z,98893.91
2022-10-04T02:53:24.245Z,98904.06
2022-10-04T02:54:45.824Z,98903.90
2022-10-04T02:55:51.719Z,98907.59
2022-10-04T02:57:01.254Z,98907.59
2022-10-04T02:58:09.867Z,98904.06
2022-10-04T02:59:18.120Z,98911.09
2022-10-04T03:00:29.829Z,98915.46
2022-10-04T03:01:48.384Z,98914.48
2022-10-04T03:03:13.355Z,98914.48
2022-10-04T03:04:18.916Z,98907.75
2022-10-04T03:05:22.751Z,98918.45
2022-10-04T03:06:29.695Z,98916.45
2022-10-04T03:07:36.462Z,98917.13
2022-10-04T03:08:49.253Z,98917.62
2022-10-04T03:09:55.402Z,98917.62
2022-10-04T03:11:00.362Z,98922.50
2022-10-04T03:12:08.132Z,98921.48
2022-10-04T03:13:14.979Z,98924.16
2022-10-04T03:14:21.850Z,98921.48
2022-10-04T03:15:25.888Z,98920.66
2022-10-04T03:16:36.810Z,98929.36
2022-10-04T03:17:44.577Z,98932.86
2022-10-04T03:18:50.353Z,98932.86
2022-10-04T03:19:56.687Z,98927.66
2022-10-04T03:21:05.643Z,98935.53
2022-10-04T03:22:13.665Z,98933.84
2022-10-04T03:23:21.522Z,98933.84
2022-10-04T03:24:32.949Z,98932.67
2022-10-04T03:25:44.733Z,98928.83
2022-10-04T03:26:57.147Z,98931.50
2022-10-04T03:28:03.297Z,98941.03
2022-10-04T03:29:10.703Z,98935.69
2022-10-04T03:30:21.430Z,98942.05
2022-10-04T03:31:31.846Z,98947.22
2022-10-04T03:32:36.109Z,98948.91
2022-10-04T03:33:41.480Z,98944.23
2022-10-04T03:35:07.557Z,98948.56
2022-10-04T03:36:14.622Z,98948.38
2022-10-04T03:37:19.204Z,98951.91
2022-10-04T03:38:30.372Z,98954.41
2022-10-04T03:39:45.505Z,98958.09
2022-10-04T04:26:50.923Z,99003.01
2022-10-04T04:28:03.850Z,99011.70
2022-10-04T04:29:10.901Z,99007.72
2022-10-04T04:30:20.761Z,99011.04
2022-10-04T04:31:30.366Z,99008.89
2022-10-04T04:32:43.473Z,99005.05
2022-10-04T04:34:04.098Z,99007.05
2022-10-04T04:35:10.393Z,99019.94
2022-10-04T04:36:17.039Z,99014.73
2022-10-04T04:37:21.361Z,99020.09
2022-10-04T04:38:26.547Z,99015.41
2022-10-04T04:39:32.351Z,99016.92
2022-10-04T04:40:37.416Z,99018.77
2022-10-04T04:41:49.512Z,99018.77
2022-10-04T04:42:52.950Z,99019.41
2022-10-04T04:43:57.291Z,99025.97
2022-10-04T04:45:09.234Z,99022.31
2022-10-04T04:46:26.993Z,99022.31
2022-10-04T04:47:34.654Z,99031.84
2022-10-04T04:48:38.869Z,99038.03
2022-10-04T04:49:42.882Z,99040.52
2022-10-04T04:50:58.014Z,99034.19
2022-10-04T04:52:03.089Z,99033.51
2022-10-04T04:53:14.718Z,99035.69
2022-10-04T04:54:24.116Z,99035.51
2022-10-04T04:55:50.104Z,99037.35
2022-10-04T04:56:38.302Z,99038.19
2022-10-04T04:57:42.974Z,99038.03
2022-10-04T04:58:49.570Z,99037.69
2022-10-04T04:59:56.495Z,99040.86
2022-10-04T05:01:06.010Z,99040.86
2022-10-04T05:02:15.517Z,99037.20
2022-10-04T05:03:21.562Z,99051.91
2022-10-04T05:04:25.482Z,99057.94
2022-10-04T05:05:33.536Z,99057.94
2022-10-04T05:06:40.366Z,99057.94
2022-10-04T05:07:44.343Z,99066.11
2022-10-04T05:08:50.119Z,99062.95
2022-10-04T05:09:57.828Z,99059.78
2022-10-04T05:11:14.419Z,99059.78
2022-10-04T05:12:26.514Z,99029.66
2022-10-04T05:13:41.600Z,99060.27
2022-10-04T05:14:51.019Z,99060.27
2022-10-04T05:15:57.259Z,99056.92
2022-10-04T05:17:01.692Z,99056.92
2022-10-04T05:18:26.767Z,99069.13
2022-10-04T05:19:39.454Z,99070.64
2022-10-04T05:20:48.089Z,99073.16
2022-10-04T05:21:54.891Z,99073.16
2022-10-04T05:22:59.897Z,99077.69
2022-10-04T05:24:24.728Z,99083.72
2022-10-04T05:25:33.533Z,99085.38
2022-10-04T05:26:37.663Z,99089.72
2022-10-04T05:27:44.701Z,99087.03
2022-10-04T05:28:48.727Z,99083.03
2022-10-04T05:30:10.691Z,99086.39
2022-10-04T05:31:34.040Z,99089.90
2022-10-04T05:32:58.873Z,99093.73
2022-10-04T05:34:04.585Z,99098.59
2022-10-04T05:35:17.516Z,99094.08
2022-10-04T05:36:42.805Z,99105.27
2022-10-04T05:37:52.522Z,99102.44
2022-10-04T05:39:06.549Z,99102.44
2022-10-04T05:40:18.228Z,99105.77
2022-10-04T05:41:31.352Z,99103.95
2022-10-04T05:42:43.083Z,99107.45
2022-10-04T05:43:51.807Z,99113.98
2022-10-04T05:44:58.379Z,99105.11
2022-10-04T05:46:26.182Z,99105.11
2022-10-04T05:47:31.077Z,99118.98
2022-10-04T05:48:36.264Z,99113.63
2022-10-04T05:49:44.821Z,99116.80
2022-10-04T05:50:49.000Z,99121.81
2022-10-04T05:51:58.570Z,99120.64
2022-10-04T05:53:32.502Z,99127.50
2022-10-04T05:54:36.839Z,99127.50
2022-10-04T05:55:55.616Z,99134.54
2022-10-04T05:57:21.910Z,99134.54
2022-10-04T05:58:48.119Z,99134.20
2022-10-04T06:00:06.872Z,99134.20
2022-10-04T06:01:22.376Z,99143.05
2022-10-04T06:02:48.709Z,99141.88
2022-10-04T06:04:27.045Z,99149.22
2022-10-04T06:05:53.808Z,99145.53
2022-10-04T06:07:00.715Z,99155.91
2022-10-04T06:08:24.152Z,99156.73
2022-10-04T06:09:49.008Z,99152.90
2022-10-04T06:11:05.100Z,99155.26
2022-10-04T06:12:17.215Z,99158.61
2022-10-04T06:13:45.334Z,99167.83
2022-10-04T06:14:55.037Z,99163.64
2022-10-04T06:16:27.636Z,99161.45
2022-10-04T06:17:53.776Z,99161.45
2022-10-04T06:19:26.497Z,99160.59
2022-10-04T06:21:06.445Z,99160.59
2022-10-04T06:22:14.958Z,99164.28
2022-10-04T06:23:22.367Z,99166.93
2022-10-04T06:24:31.676Z,99171.59
2022-10-04T06:25:47.387Z,99167.03
2022-10-04T06:27:03.265Z,99165.50
2022-10-04T06:28:15.796Z,99164.98
2022-10-04T06:29:25.584Z,99167.98
2022-10-04T06:30:32.543Z,99168.14
2022-10-04T06:31:45.605Z,99165.09
2022-10-04T06:33:08.207Z,99171.61
2022-10-04T06:34:28.492Z,99174.36
2022-10-04T06:35:35.324Z,99177.66
2022-10-04T06:36:59.827Z,99181.48
2022-10-04T06:38:26.431Z,99178.58
2022-10-04T06:39:33.280Z,99179.36
2022-10-04T06:40:49.043Z,99173.62
2022-10-04T06:42:01.770Z,99173.62
2022-10-04T06:43:23.431Z,99182.81
2022-10-04T06:44:34.241Z,99182.15
2022-10-04T06:46:03.893Z,99191.23
2022-10-04T06:47:22.873Z,99191.23
2022-10-04T06:48:38.740Z,99188.55
2022-10-04T06:49:48.290Z,99188.55
2022-10-04T06:51:01.295Z,99194.28
2022-10-04T06:52:26.226Z,99192.95
2022-10-04T06:53:55.909Z,99192.95
2022-10-04T06:55:02.610Z,99193.98
2022-10-04T06:56:29.088Z,99193.31
2022-10-04T06:58:08.914Z,99193.31
2022-10-04T06:59:27.871Z,99205.69
2022-10-04T07:00:36.422Z,99204.97
2022-10-04T07:01:52.823Z,99200.42
2022-10-04T07:03:17.841Z,99215.36
2022-10-04T07:05:07.546Z,99207.66
2022-10-04T07:06:06.535Z,99215.52
2022-10-04T07:07:22.546Z,99213.86
2022-10-04T07:08:44.436Z,99214.89
2022-10-04T07:09:50.023Z,99216.85
2022-10-04T07:10:56.965Z,99216.85
2022-10-04T07:12:03.899Z,99219.11
2022-10-04T07:13:10.801Z,99220.24
2022-10-04T07:14:42.603Z,99222.56
2022-10-04T07:15:31.389Z,99214.80
2022-10-04T07:16:53.379Z,99214.80
2022-10-04T07:18:02.141Z,99214.94
2022-10-04T07:19:17.882Z,99225.05
2022-10-04T07:20:24.927Z,99226.25
2022-10-04T07:21:33.667Z,99225.17
2022-10-04T07:22:43.392Z,99225.17
2022-10-04T07:23:56.105Z,99233.27
2022-10-04T07:40:41.120Z,99257.55
2022-10-04T07:41:25.980Z,99253.13
2022-10-04T07:42:40.901Z,99256.10
2022-10-04T07:43:57.493Z,99256.42
2022-10-04T07:46:55.688Z,99254.20
2022-10-04T07:52:11.383Z,99250.50
2022-10-04T07:53:21.037Z,99277.53
2022-10-04T07:54:55.839Z,99281.42
2022-10-04T07:56:06.880Z,99269.17
2022-10-04T07:57:34.720Z,99273.88
2022-10-04T08:00:06.055Z,99276.51
2022-10-04T08:01:40.320Z,99276.51
2022-10-04T08:15:23.700Z,99291.20
2022-10-04T08:16:30.627Z,99294.39
2022-10-04T08:17:40.633Z,99290.02
2022-10-04T08:19:03.832Z,99292.34
2022-10-04T08:20:19.859Z,99294.50
2022-10-04T08:21:28.936Z,99300.70
2022-10-04T08:22:38.428Z,99294.20
2022-10-04T08:23:59.992Z,99297.19
2022-10-04T08:25:15.657Z,99297.19
2022-10-04T08:26:25.043Z,99302.86
2022-10-04T08:27:46.901Z,99302.86
2022-10-04T08:30:41.581Z,99302.97
2022-10-04T08:32:10.579Z,99309.91
2022-10-04T08:33:37.267Z,99314.45
2022-10-04T08:34:52.881Z,99314.45
2022-10-04T08:36:19.275Z,99312.00
2022-10-04T08:37:42.185Z,99313.13
2022-10-04T08:38:52.060Z,99319.34
2022-10-04T08:40:21.873Z,99319.34
2022-10-04T08:42:02.054Z,99317.31
2022-10-04T08:43:20.739Z,99317.31
2022-10-04T08:44:44.028Z,99321.86
2022-10-04T08:45:59.574Z,99321.92
2022-10-04T08:47:30.798Z,99332.16
2022-10-04T08:49:14.848Z,99330.46
2022-10-04T08:50:44.521Z,99330.09
2022-10-04T08:52:06.157Z,99332.98
2022-10-04T08:53:32.584Z,99337.03
2022-10-04T08:54:58.751Z,99337.03
2022-10-04T08:56:17.890Z,99334.97
2022-10-04T08:57:50.332Z,99336.33
2022-10-04T08:59:02.729Z,99342.90
2022-10-04T09:00:12.427Z,99342.90
2022-10-04T09:01:27.745Z,99310.13
2022-10-04T09:02:45.742Z,99350.97
2022-10-04T09:04:18.091Z,99353.48
2022-10-04T09:05:38.235Z,99364.25
2022-10-04T09:06:57.778Z,99364.25
2022-10-04T09:08:08.161Z,99356.81
2022-10-04T09:09:36.702Z,99356.81
2022-10-04T09:10:52.257Z,99362.55
2022-10-04T09:12:07.795Z,99362.55
2022-10-04T09:13:17.502Z,99360.36
2022-10-04T09:14:49.840Z,99371.45
2022-10-04T09:15:55.461Z,99369.78
2022-10-04T09:17:08.269Z,99369.78
2022-10-04T09:18:18.076Z,99372.69
2022-10-04T09:19:45.782Z,99372.69
2022-10-04T09:21:04.699Z,99377.43
2022-10-04T09:22:29.652Z,99377.43
2022-10-04T09:23:36.583Z,99384.83
2022-10-04T09:24:49.453Z,99260.59
2022-10-04T09:26:18.557Z,99385.50
2022-10-04T09:27:55.096Z,99363.89
2022-10-04T09:29:03.933Z,99363.89
2022-10-04T09:30:08.208Z,99392.17
2022-10-04T09:31:30.067Z,99390.32
2022-10-04T09:32:41.218Z,99393.88
2022-10-04T09:33:53.833Z,99388.82
2022-10-04T09:35:12.848Z,99398.94
2022-10-04T09:36:48.425Z,99398.94
2022-10-04T09:38:03.902Z,99396.41
2022-10-04T09:39:33.917Z,99396.41
2022-10-04T09:40:57.587Z,99404.31
2022-10-04T09:42:22.382Z,99404.31
2022-10-04T09:43:30.972Z,99400.95
2022-10-04T09:44:45.125Z,99400.95
2022-10-04T09:46:09.965Z,99411.04
2022-10-04T09:47:47.485Z,99407.69
2022-10-04T09:48:57.955Z,99414.91
2022-10-04T09:50:27.282Z,99414.91
2022-10-04T09:52:01.708Z,99410.38
2022-10-04T09:53:14.894Z,99415.42
2022-10-04T09:54:49.683Z,99420.92
2022-10-04T09:56:12.341Z,99414.31
2022-10-04T09:57:26.715Z,99414.27
2022-10-04T09:58:42.599Z,99414.27
2022-10-04T09:59:58.525Z,99415.85
2022-10-04T10:01:39.842Z,99421.01
2022-10-04T10:03:18.563Z,99420.12
2022-10-04T10:04:35.469Z,99427.59
2022-10-04T10:05:45.301Z,99427.23
2022-10-04T10:07:16.017Z,99427.23
2022-10-04T10:08:56.170Z,99422.98
2022-10-04T10:10:08.601Z,99424.70
2022-10-04T10:11:31.790Z,99424.70
2022-10-04T10:13:04.177Z,99423.80
2022-10-04T10:14:31.826Z,99432.34
2022-10-04T10:16:01.646Z,99429.48
2022-10-04T10:17:19.913Z,99424.09
2022-10-04T10:18:38.650Z,99424.09
2022-10-04T10:20:06.766Z,99435.49
2022-10-04T10:21:42.213Z,99436.81
2022-10-04T10:22:55.544Z,99439.97
2022-10-04T10:24:24.844Z,99438.77
2022-10-04T10:25:37.778Z,99438.77
2022-10-04T10:27:08.883Z,99441.30
2022-10-04T10:28:48.949Z,99447.44
2022-10-04T10:30:04.978Z,99437.31
2022-10-04T10:31:24.106Z,99444.53
2022-10-04T10:32:42.714Z,99444.53
2022-10-04T10:34:06.110Z,99442.05
2022-10-04T10:35:21.708Z,99442.05
2022-10-04T10:36:44.127Z,99450.05
2022-10-04T10:38:13.728Z,99449.01
2022-10-04T10:39:38.733Z,99449.01
2022-10-04T10:41:00.668Z,99448.38
2022-10-04T10:42:13.606Z,99449.75
2022-10-04T10:43:26.593Z,99449.09
2022-10-04T10:44:45.371Z,99455.05
2022-10-04T10:47:34.712Z,99458.66
2022-10-04T10:49:52.598Z,99455.55
2022-10-04T10:50:37.661Z,99455.22
2022-10-04T10:52:03.572Z,99451.63
2022-10-04T10:53:32.636Z,99457.90
2022-10-04T10:55:02.149Z,99457.90
2022-10-04T10:56:11.632Z,99460.84
2022-10-04T11:00:01.872Z,99459.28
2022-10-04T11:00:50.077Z,99458.91
2022-10-04T11:02:19.621Z,99458.91
2022-10-04T11:04:00.151Z,99459.46
2022-10-04T11:05:22.094Z,99458.13
2022-10-04T11:06:51.393Z,99459.67
2022-10-04T11:08:24.344Z,99459.00
2022-10-04T11:09:41.653Z,99459.00
2022-10-04T11:11:01.756Z,99465.95
2022-10-04T11:12:08.728Z,99473.55
2022-10-04T11:13:39.162Z,99468.17
2022-10-04T11:14:55.487Z,99468.17
2022-10-04T11:16:21.846Z,99468.52
2022-10-04T11:17:37.745Z,99468.20
2022-10-04T11:19:06.817Z,99471.23
2022-10-04T11:20:25.956Z,99471.23
2022-10-04T11:22:02.938Z,99482.72
2022-10-04T11:23:12.855Z,99484.03
2022-10-04T11:24:43.631Z,99489.76
2022-10-04T11:26:19.017Z,99483.36
2022-10-04T11:27:49.390Z,99482.69
2022-10-04T11:29:16.028Z,99491.72
2022-10-04T11:30:25.657Z,99483.63
2022-10-04T11:31:52.158Z,99483.63
2022-10-04T11:33:27.447Z,99480.70
2022-10-04T11:34:55.449Z,99494.23
2022-10-04T11:36:36.729Z,99488.86
2022-10-04T11:37:46.288Z,99488.86
2022-10-04T11:39:10.926Z,99488.99
2022-10-04T11:40:27.016Z,99501.06
2022-10-04T11:41:49.252Z,99494.17
2022-10-04T11:43:16.953Z,99495.31
2022-10-04T11:44:41.879Z,99498.98
2022-10-04T11:45:54.806Z,99494.80
2022-10-04T11:47:10.604Z,99493.13
2022-10-04T11:48:40.047Z,99492.98
2022-10-04T11:49:47.000Z,99503.59
2022-10-04T11:51:19.289Z,99503.59
2022-10-04T11:52:39.400Z,99500.06
2022-10-04T11:54:04.426Z,99505.25
2022-10-04T11:55:27.651Z,99505.25
2022-10-04T11:56:37.109Z,99506.27
2022-10-04T11:57:49.103Z,99506.27
2022-10-04T11:58:59.176Z,99502.39
2022-10-04T12:00:09.134Z,99502.20
2022-10-04T12:03:01.560Z,99505.56
2022-10-04T12:04:14.394Z,99501.88
2022-10-04T12:05:26.746Z,99506.89
2022-10-04T12:06:52.602Z,99505.56
2022-10-04T12:08:17.383Z,99499.19
2022-10-04T12:09:32.365Z,99499.19
2022-10-04T12:10:39.254Z,99500.38
2022-10-04T12:12:06.980Z,99507.42
2022-10-04T12:13:29.177Z,99507.42
2022-10-04T12:14:36.148Z,99509.75
2022-10-04T12:16:02.600Z,99509.75
2022-10-04T12:17:28.944Z,99509.95
2022-10-04T12:19:03.004Z,99499.45
2022-10-04T12:20:19.076Z,99497.44
2022-10-04T12:21:49.548Z,99494.58
2022-10-04T12:23:10.168Z,99507.52
2022-10-04T12:24:25.744Z,99503.13
2022-10-04T12:25:35.174Z,99503.13
2022-10-04T12:26:42.719Z,99508.20
2022-10-04T12:28:00.277Z,99519.27
2022-10-04T12:29:29.355Z,99510.48
2022-10-04T12:31:00.465Z,99505.40
2022-10-04T12:32:23.429Z,99505.59
2022-10-04T12:33:37.650Z,99505.34
2022-10-04T12:34:53.593Z,99507.56
2022-10-04T12:36:06.108Z,99510.73
2022-10-04T12:37:27.817Z,99497.27
2022-10-04T12:39:00.259Z,99497.27
2022-10-04T12:40:27.857Z,99510.73
2022-10-04T12:41:58.611Z,99510.73
2022-10-04T12:43:21.910Z,99517.80
2022-10-04T12:44:39.157Z,99512.12
2022-10-04T12:45:57.826Z,99508.76
2022-10-04T12:47:09.819Z,99518.50
2022-10-04T12:48:33.083Z,99508.09
2022-10-04T12:49:44.677Z,99520.05
2022-10-04T12:50:54.140Z,99518.75
2022-10-04T12:52:11.294Z,99513.84
2022-10-04T12:53:34.561Z,99513.84
2022-10-04T12:54:47.017Z,99516.36
2022-10-04T12:56:02.355Z,99518.86
2022-10-04T12:57:16.483Z,99523.88
2022-10-04T12:58:48.813Z,99522.88
2022-10-04T12:59:57.153Z,99522.69
2022-10-04T13:01:19.164Z,99522.69
2022-10-04T13:02:46.969Z,99525.22
2022-10-04T13:04:07.250Z,99530.23
2022-10-04T13:05:48.927Z,99530.23
2022-10-04T13:06:55.827Z,99540.54
2022-10-04T13:08:05.710Z,99533.45
2022-10-04T13:09:25.854Z,99527.60
2022-10-04T13:10:49.234Z,99540.03
2022-10-04T13:12:16.903Z,99536.34
2022-10-04T13:13:30.050Z,99535.02
2022-10-04T13:14:36.938Z,99536.04
2022-10-04T13:17:29.661Z,99536.76
2022-10-04T13:18:44.556Z,99535.37
2022-10-04T13:20:00.673Z,99541.78
2022-10-04T13:21:10.213Z,99541.78
2022-10-04T13:22:55.409Z,99544.33
2022-10-04T13:24:03.198Z,99560.00
2022-10-04T13:25:37.104Z,99549.95
2022-10-04T13:26:57.222Z,99551.66
2022-10-04T13:28:29.910Z,99561.12
2022-10-04T13:29:40.660Z,99554.23
2022-10-04T13:30:54.871Z,99549.14
2022-10-04T13:32:10.769Z,99560.80
2022-10-04T13:33:32.331Z,99555.74
2022-10-04T13:34:44.943Z,99555.74
2022-10-04T13:36:03.884Z,99550.69
2022-10-04T13:37:19.321Z,99547.00
2022-10-04T13:38:33.074Z,99551.03
2022-10-04T13:39:48.565Z,99553.56
2022-10-04T13:41:10.440Z,99549.18
2022-10-04T13:43:54.469Z,99557.80
2022-10-04T13:45:05.894Z,99564.84
2022-10-04T13:46:27.639Z,99564.84
2022-10-04T13:47:55.485Z,99563.33
2022-10-04T13:49:20.085Z,99563.33
2022-10-04T13:50:44.939Z,99567.88
2022-10-04T13:51:51.836Z,99567.88
2022-10-04T13:53:21.087Z,99566.53
2022-10-04T13:54:36.780Z,99566.53
2022-10-04T13:55:49.232Z,99575.30
2022-10-04T13:57:07.772Z,99575.30
2022-10-04T13:58:23.189Z,99573.80
2022-10-04T14:15:35.025Z,99599.57
2022-10-04T14:16:59.551Z,99596.88
2022-10-04T14:18:31.726Z,99596.88
2022-10-04T14:20:13.925Z,99600.42
2022-10-04T14:21:55.698Z,99604.96
2022-10-04T14:23:08.703Z,99608.15
2022-10-04T14:24:21.601Z,99606.64
2022-10-04T14:25:50.458Z,99618.75
2022-10-04T14:27:02.875Z,99614.40
2022-10-04T14:28:29.172Z,99619.44
2022-10-04T14:29:56.806Z,99625.13
2022-10-04T14:31:25.581Z,99625.13
2022-10-04T14:32:50.858Z,99617.74
2022-10-04T14:34:03.572Z,99626.98
2022-10-04T14:35:13.259Z,99623.61
2022-10-04T14:36:38.458Z,99623.80
2022-10-04T14:39:26.601Z,99630.83
2022-10-04T14:40:48.935Z,99637.72
2022-10-04T14:42:15.441Z,99640.89
2022-10-04T14:43:37.375Z,99640.89
2022-10-04T14:45:04.153Z,99638.88
2022-10-04T14:46:18.633Z,99642.58
2022-10-04T14:47:45.667Z,99649.27
2022-10-04T14:49:02.256Z,99649.27
2022-10-04T14:50:25.646Z,99649.61
2022-10-04T14:51:38.317Z,99652.95
2022-10-04T14:52:53.967Z,99647.73
2022-10-04T14:54:21.733Z,99650.94
2022-10-04T14:55:52.865Z,99655.63
2022-10-04T14:57:08.551Z,99655.63
2022-10-04T14:58:44.293Z,99662.01
2022-10-04T15:00:10.109Z,99655.12
2022-10-04T15:01:28.196Z,99666.01
2022-10-04T15:02:39.232Z,99665.50
2022-10-04T15:04:14.473Z,99681.94
2022-10-04T15:05:42.673Z,99670.34
2022-10-04T15:06:52.749Z,99668.67
2022-10-04T15:08:24.524Z,99676.22
2022-10-04T15:09:44.894Z,99665.53
2022-10-04T15:11:06.681Z,99690.23
2022-10-04T15:12:45.838Z,99686.02
2022-10-04T15:13:38.729Z,99686.02
2022-10-04T15:15:05.235Z,99676.62
2022-10-04T15:16:15.277Z,99684.17
2022-10-04T15:17:31.091Z,99685.98
2022-10-04T15:18:46.420Z,99687.00
2022-10-04T15:20:23.208Z,99694.03
2022-10-04T15:21:40.474Z,99689.69
2022-10-04T15:22:52.317Z,99686.17
2022-10-04T15:24:01.848Z,99689.83
2022-10-04T15:25:30.634Z,99689.83
2022-10-04T15:26:34.575Z,99693.38
2022-10-04T15:27:52.758Z,99702.41
2022-10-04T15:28:59.761Z,99700.74
2022-10-04T15:30:29.062Z,99700.74
2022-10-04T15:32:12.051Z,99701.21
2022-10-04T15:33:21.867Z,99707.41
2022-10-04T15:34:47.614Z,99707.41
2022-10-04T15:36:18.169Z,99705.74
2022-10-04T15:37:27.956Z,99710.27
2022-10-04T15:38:53.148Z,99707.22
2022-10-04T15:40:37.124Z,99718.47
2022-10-04T15:43:27.349Z,99712.41
2022-10-04T15:44:45.920Z,99711.75
2022-10-04T15:46:06.221Z,99721.47
2022-10-04T15:47:27.103Z,99719.11
2022-10-04T15:48:38.227Z,99719.11
2022-10-04T15:50:11.170Z,99722.80
2022-10-04T15:51:37.459Z,99723.79
2022-10-04T15:52:47.355Z,99724.80
2022-10-04T15:54:12.230Z,99724.80
2022-10-04T15:55:38.484Z,99735.53
2022-10-04T15:56:59.448Z,99732.16
2022-10-04T15:58:19.411Z,99738.53
2022-10-04T15:59:28.954Z,99738.53
2022-10-04T16:01:03.333Z,99742.19
2022-10-04T16:02:31.303Z,99751.25
2022-10-04T16:03:58.576Z,99753.09
2022-10-04T16:05:20.445Z,99755.92
2022-10-04T16:06:37.958Z,99767.48
2022-10-04T16:08:03.051Z,99760.45
2022-10-04T16:09:35.657Z,99760.45
2022-10-04T16:11:04.033Z,99759.62
2022-10-04T16:12:30.567Z,99759.76
2022-10-04T16:13:58.358Z,99759.76
2022-10-04T16:15:21.572Z,99766.28
2022-10-04T16:16:38.961Z,99764.43
2022-10-04T16:17:48.594Z,99765.59
2022-10-04T16:19:15.928Z,99764.75
2022-10-04T16:20:31.651Z,99760.22
2022-10-04T16:21:56.787Z,99767.28
2022-10-04T16:23:29.539Z,99771.95
2022-10-04T16:24:47.825Z,99771.64
2022-10-04T16:25:57.653Z,99765.59
2022-10-04T16:27:10.082Z,99776.31
2022-10-04T16:28:49.807Z,99776.31
2022-10-04T16:30:25.580Z,99776.31
2022-10-04T16:31:28.573Z,99778.99
2022-10-04T16:32:40.363Z,99774.64
2022-10-04T16:46:41.749Z,99784.41
2022-10-04T16:47:54.339Z,99784.41
2022-10-04T16:49:03.000Z,99793.42
2022-10-04T16:50:09.870Z,99788.93
2022-10-04T16:51:19.731Z,99777.06
2022-10-04T16:52:32.563Z,99777.06
2022-10-04T16:54:00.757Z,99791.67
2022-10-04T16:55:22.886Z,99787.15
2022-10-04T16:56:34.447Z,99787.15
2022-10-04T16:57:39.779Z,99789.66
2022-10-04T16:59:07.114Z,99793.34
2022-10-04T17:00:37.089Z,99793.34
2022-10-04T17:01:48.823Z,99795.34
2022-10-04T17:03:10.405Z,99795.34
2022-10-04T17:04:38.607Z,99800.70
2022-10-04T17:05:53.907Z,99788.82
2022-10-04T17:07:22.032Z,99794.19
2022-10-04T17:09:39.930Z,99806.06
2022-10-04T17:11:11.020Z,99806.06
2022-10-04T17:11:35.223Z,99794.19
2022-10-04T17:12:40.144Z,99806.06
2022-10-04T17:14:06.209Z,99802.72
2022-10-04T17:15:16.237Z,99806.06
2022-10-04T17:16:41.857Z,99807.07
2022-10-04T17:17:54.555Z,99781.13
2022-10-04T17:19:19.413Z,99803.37
2022-10-04T17:20:47.794Z,99806.06
2022-10-04T17:22:12.876Z,99810.59